Time;durP1;ratioP1;P1;durP2;ratioP2;P2;SDS_P1;SDS_P2;PMS_P1;PMS_P2;Temp;Humidity;BMP_temperature;BMP_pressure;BME280_temperature;BME280_humidity;BME280_pressure;Samples;Min_cycle;Max_cycle;Signal;HPM_P1;HPM_P2
2021/12/17 00:00:58;;;;;;;;;;;6.90;92.40;;;;;;5029742;28;19909;-85
2021/12/17 00:03:50;;;;;;;;;;;6.90;92.40;;;;;;5041673;28;19913;-85
2021/12/17 00:08:48;;;;;;;;;;;6.90;92.40;;;;;;5045887;28;20285;-85
2021/12/17 00:11:15;;;;;;;;;;;6.80;92.30;;;;;;5010177;28;20265;-84
2021/12/17 00:13:43;;;;;;;;;;;6.80;92.30;;;;;;5035127;28;19916;-85
2021/12/17 00:16:17;;;;;;;;;;;6.80;92.30;;;;;;5023644;28;19912;-85
2021/12/17 00:48:59;;;;;;;;;;;6.50;92.50;;;;;;5045894;28;19931;-85
2021/12/17 00:53:56;;;;;;;;;;;6.50;92.50;;;;;;5032913;28;20679;-85
2021/12/17 00:56:23;;;;;;;;;;;6.50;92.50;;;;;;5039807;28;19923;-85
2021/12/17 00:58:50;;;;;;;;;;;6.50;92.60;;;;;;5040367;28;20106;-85
2021/12/17 01:01:17;;;;;;;;;;;6.50;92.60;;;;;;5025795;28;20037;-85
2021/12/17 01:03:44;;;;;;;;;;;6.50;92.70;;;;;;5014558;28;19917;-85
2021/12/17 01:06:11;;;;;;;;;;;6.50;92.70;;;;;;5041934;28;19916;-85
2021/12/17 01:08:38;;;;;;;;;;;6.60;92.70;;;;;;5024048;28;19909;-84
2021/12/17 01:11:05;;;;;;;;;;;6.60;92.80;;;;;;5031729;28;20324;-84
2021/12/17 01:13:33;;;;;;;;;;;6.60;92.90;;;;;;5008241;28;19928;-85
2021/12/17 01:15:59;;;;;;;;;;;6.60;93.00;;;;;;5033945;28;20485;-85
2021/12/17 01:18:39;;;;;;;;;;;6.60;93.00;;;;;;5027250;28;19908;-85
2021/12/17 01:37:06;;;;;;;;;;;6.70;93.20;;;;;;5042993;28;20430;-85
2021/12/17 01:42:19;;;;;;;;;;;6.70;93.30;;;;;;5050221;28;19923;-85
2021/12/17 01:44:46;;;;;;;;;;;6.80;93.30;;;;;;5024325;28;20289;-85
2021/12/17 01:47:14;;;;;;;;;;;6.80;93.40;;;;;;5026574;28;19912;-84
2021/12/17 02:00:18;;;;;;;;;;;6.90;93.60;;;;;;5030605;28;19908;-85
2021/12/17 02:02:52;;;;;;;;;;;6.90;93.60;;;;;;5020467;28;20087;-86
2021/12/17 02:05:19;;;;;;;;;;;6.90;93.60;;;;;;5042781;28;19912;-86
2021/12/17 02:07:49;;;;;;;;;;;6.90;93.60;;;;;;5027973;28;20201;-86
2021/12/17 02:13:05;;;;;;;;;;;6.90;93.60;;;;;;5040681;28;20095;-86
2021/12/17 02:28:44;;;;;;;;;;;7.00;93.70;;;;;;5040406;28;19912;-86
2021/12/17 02:32:03;;;;;;;;;;;7.00;93.70;;;;;;5008749;28;20018;-86
2021/12/17 02:37:21;;;;;;;;;;;7.00;93.70;;;;;;5037267;28;19909;-86
2021/12/17 02:47:50;;;;;;;;;;;7.00;93.80;;;;;;5024617;28;20124;-86
2021/12/17 02:50:17;;;;;;;;;;;6.90;93.80;;;;;;5027038;28;19926;-86
2021/12/17 02:52:45;;;;;;;;;;;7.00;93.80;;;;;;5042700;28;19915;-86
2021/12/17 02:55:13;;;;;;;;;;;7.00;93.90;;;;;;5040636;28;19912;-86
2021/12/17 02:57:40;;;;;;;;;;;7.00;93.90;;;;;;5025138;28;20274;-86
2021/12/17 03:00:07;;;;;;;;;;;7.00;94.00;;;;;;5035227;28;20365;-86
2021/12/17 03:02:37;;;;;;;;;;;7.00;93.90;;;;;;5029230;28;19912;-86
2021/12/17 03:05:05;;;;;;;;;;;7.00;93.90;;;;;;5029261;28;19916;-86
2021/12/17 03:07:39;;;;;;;;;;;7.00;93.90;;;;;;5025045;28;19915;-86
2021/12/17 03:10:09;;;;;;;;;;;7.00;94.00;;;;;;5041320;28;19912;-86
2021/12/17 03:12:48;;;;;;;;;;;7.10;94.00;;;;;;5013703;28;19916;-86
2021/12/17 03:25:49;;;;;;;;;;;7.10;94.10;;;;;;5044487;28;19998;-86
2021/12/17 03:28:16;;;;;;;;;;;7.10;94.10;;;;;;5027282;28;19919;-87
2021/12/17 03:30:43;;;;;;;;;;;7.10;94.10;;;;;;5006920;28;20303;-87
2021/12/17 03:33:10;;;;;;;;;;;7.10;94.20;;;;;;5033203;28;20006;-87
2021/12/17 03:35:37;;;;;;;;;;;7.20;94.50;;;;;;5015287;28;19919;-87
2021/12/17 03:38:04;;;;;;;;;;;7.20;94.20;;;;;;5020432;28;19915;-87
2021/12/17 03:40:33;;;;;;;;;;;7.20;94.20;;;;;;5042824;28;19916;-86
2021/12/17 03:43:03;;;;;;;;;;;7.20;94.20;;;;;;5034627;28;19917;-86
2021/12/17 03:45:30;;;;;;;;;;;7.20;94.30;;;;;;5040535;28;19908;-86
2021/12/17 03:47:57;;;;;;;;;;;7.30;94.30;;;;;;5019081;28;20025;-86
2021/12/17 03:50:24;;;;;;;;;;;7.20;94.30;;;;;;5015496;28;19919;-87
2021/12/17 03:52:51;;;;;;;;;;;7.20;94.30;;;;;;5034575;28;19912;-87
2021/12/17 03:55:17;;;;;;;;;;;7.20;94.30;;;;;;5033377;28;19915;-87
2021/12/17 03:57:45;;;;;;;;;;;7.20;94.30;;;;;;5022090;28;19908;-87
2021/12/17 04:00:12;;;;;;;;;;;7.20;94.30;;;;;;5036659;28;19919;-87
2021/12/17 04:02:39;;;;;;;;;;;7.20;94.20;;;;;;5027992;28;19915;-87
2021/12/17 04:05:06;;;;;;;;;;;7.20;94.20;;;;;;5033216;28;20266;-87
2021/12/17 04:07:33;;;;;;;;;;;7.20;94.20;;;;;;5021755;28;19917;-87
2021/12/17 04:10:00;;;;;;;;;;;7.20;94.20;;;;;;5021037;28;20534;-87
2021/12/17 04:15:30;;;;;;;;;;;7.20;94.20;;;;;;5033836;28;19922;-87
2021/12/17 04:17:58;;;;;;;;;;;7.20;94.20;;;;;;5014868;28;20397;-87
2021/12/17 04:20:25;;;;;;;;;;;7.20;94.20;;;;;;5032928;28;20145;-87
2021/12/17 04:22:51;;;;;;;;;;;7.20;94.20;;;;;;5029252;28;20502;-87
2021/12/17 04:25:18;;;;;;;;;;;7.20;94.20;;;;;;5029059;28;20476;-87
2021/12/17 04:27:45;;;;;;;;;;;7.20;94.20;;;;;;5030277;28;20120;-87
2021/12/17 04:30:12;;;;;;;;;;;7.20;94.30;;;;;;5040189;28;19913;-87
2021/12/17 04:32:39;;;;;;;;;;;7.20;94.30;;;;;;5039648;28;19930;-87
2021/12/17 04:35:06;;;;;;;;;;;7.20;94.30;;;;;;5026529;28;19931;-87
2021/12/17 04:37:33;;;;;;;;;;;7.20;94.30;;;;;;5033031;28;19919;-87
2021/12/17 04:40:00;;;;;;;;;;;7.20;94.30;;;;;;5043069;28;20193;-87
2021/12/17 04:42:45;;;;;;;;;;;7.20;94.30;;;;;;5032218;28;20302;-87
2021/12/17 04:45:12;;;;;;;;;;;7.20;94.30;;;;;;5030191;28;19924;-87
2021/12/17 04:58:40;;;;;;;;;;;7.20;94.50;;;;;;5043539;28;20300;-87
2021/12/17 05:01:12;;;;;;;;;;;7.20;94.40;;;;;;5034538;28;19917;-87
2021/12/17 05:03:39;;;;;;;;;;;7.20;94.50;;;;;;5037733;28;20687;-87
2021/12/17 05:06:06;;;;;;;;;;;7.20;94.50;;;;;;5012778;28;20381;-87
2021/12/17 05:08:34;;;;;;;;;;;7.20;94.50;;;;;;5047915;28;19921;-87
2021/12/17 05:19:15;;;;;;;;;;;7.30;94.50;;;;;;5003824;28;20102;-87
2021/12/17 05:21:42;;;;;;;;;;;7.30;94.50;;;;;;5030597;28;19917;-88
2021/12/17 05:24:09;;;;;;;;;;;7.20;94.50;;;;;;5018862;28;20007;-88
2021/12/17 05:26:35;;;;;;;;;;;7.20;94.50;;;;;;5033055;28;19912;-88
2021/12/17 05:29:02;;;;;;;;;;;7.20;94.50;;;;;;5051008;28;20010;-87
2021/12/17 05:31:29;;;;;;;;;;;7.20;94.50;;;;;;5006127;28;19916;-87
2021/12/17 05:33:56;;;;;;;;;;;7.20;94.50;;;;;;5039780;28;20419;-87
2021/12/17 05:36:23;;;;;;;;;;;7.20;94.50;;;;;;5023058;28;19920;-87
2021/12/17 05:38:50;;;;;;;;;;;7.20;94.50;;;;;;5047813;28;20113;-87
2021/12/17 05:41:17;;;;;;;;;;;7.20;94.50;;;;;;5022429;28;19947;-88
2021/12/17 05:43:44;;;;;;;;;;;7.10;94.60;;;;;;5028436;28;19915;-88
2021/12/17 05:46:12;;;;;;;;;;;7.20;94.60;;;;;;5025104;28;19916;-88
2021/12/17 05:48:40;;;;;;;;;;;7.20;94.60;;;;;;5033825;28;19918;-88
2021/12/17 05:51:08;;;;;;;;;;;7.20;94.70;;;;;;5036531;28;20375;-88
2021/12/17 05:53:35;;;;;;;;;;;7.20;94.70;;;;;;5034701;28;19908;-87
2021/12/17 05:56:03;;;;;;;;;;;7.20;94.70;;;;;;5024195;28;19998;-87
2021/12/17 05:58:29;;;;;;;;;;;7.20;94.70;;;;;;5024825;28;19916;-87
2021/12/17 06:00:57;;;;;;;;;;;7.30;94.80;;;;;;5031667;28;20733;-87
2021/12/17 06:03:24;;;;;;;;;;;7.30;94.80;;;;;;5018019;28;20400;-87
2021/12/17 06:05:51;;;;;;;;;;;7.30;94.80;;;;;;5043358;28;20111;-87
2021/12/17 06:08:17;;;;;;;;;;;7.30;94.80;;;;;;5032382;28;19908;-87
2021/12/17 06:10:44;;;;;;;;;;;7.30;94.80;;;;;;5021116;28;20095;-87
2021/12/17 06:13:11;;;;;;;;;;;7.30;94.80;;;;;;5020031;28;19923;-87
2021/12/17 06:15:38;;;;;;;;;;;7.30;94.90;;;;;;5045679;28;19915;-87
2021/12/17 06:18:05;;;;;;;;;;;7.40;94.90;;;;;;5028471;28;19935;-88
2021/12/17 06:20:32;;;;;;;;;;;7.40;94.90;;;;;;5035779;28;20288;-87
2021/12/17 06:22:59;;;;;;;;;;;7.40;94.90;;;;;;5013226;28;20095;-87
2021/12/17 06:25:25;;;;;;;;;;;7.40;95.00;;;;;;5034553;28;20102;-88
2021/12/17 06:27:52;;;;;;;;;;;7.40;95.00;;;;;;5037229;28;19938;-87
2021/12/17 06:30:20;;;;;;;;;;;7.50;95.10;;;;;;5025365;28;20440;-87
2021/12/17 06:32:47;;;;;;;;;;;7.50;95.00;;;;;;5034294;28;20344;-87
2021/12/17 06:35:14;;;;;;;;;;;7.50;95.10;;;;;;5030790;28;20128;-87
2021/12/17 06:37:41;;;;;;;;;;;7.50;95.10;;;;;;5013523;28;20413;-87
2021/12/17 06:40:09;;;;;;;;;;;7.50;95.10;;;;;;5044962;28;19919;-88
2021/12/17 06:42:36;;;;;;;;;;;7.60;95.10;;;;;;5039354;28;20272;-88
2021/12/17 06:45:08;;;;;;;;;;;7.60;95.20;;;;;;5042915;28;19908;-88
2021/12/17 06:47:37;;;;;;;;;;;7.60;95.20;;;;;;5039734;28;19917;-88
2021/12/17 06:58:47;;;;;;;;;;;7.60;95.20;;;;;;5022971;28;19912;-88
2021/12/17 07:22:19;;;;;;;;;;;7.70;95.30;;;;;;5046331;28;19909;-87
2021/12/17 07:33:15;;;;;;;;;;;7.80;95.50;;;;;;5038833;28;19939;-88
2021/12/17 07:35:47;;;;;;;;;;;7.80;95.50;;;;;;5024004;28;19909;-88
2021/12/17 07:41:18;;;;;;;;;;;7.90;95.50;;;;;;4940745;28;19910;-87
2021/12/17 07:43:53;;;;;;;;;;;7.90;95.50;;;;;;5008119;28;19912;-88
2021/12/17 07:46:20;;;;;;;;;;;7.90;95.50;;;;;;5041590;28;19915;-88
2021/12/17 07:48:47;;;;;;;;;;;8.00;95.60;;;;;;5019510;28;20201;-88
2021/12/17 07:51:15;;;;;;;;;;;8.00;95.60;;;;;;5024288;28;19908;-88
2021/12/17 07:53:42;;;;;;;;;;;8.00;95.60;;;;;;5015050;28;19912;-88
2021/12/17 07:56:11;;;;;;;;;;;8.00;95.60;;;;;;5033032;28;19912;-88
2021/12/17 07:58:38;;;;;;;;;;;8.00;95.60;;;;;;5015493;28;19913;-88
2021/12/17 08:01:08;;;;;;;;;;;8.00;95.60;;;;;;5028509;28;19908;-88
2021/12/17 08:03:35;;;;;;;;;;;8.00;95.70;;;;;;5048616;28;19923;-88
2021/12/17 08:06:02;;;;;;;;;;;8.10;95.70;;;;;;5014922;28;20936;-87
2021/12/17 08:08:29;;;;;;;;;;;8.10;95.70;;;;;;5026903;28;19909;-88
2021/12/17 08:10:56;;;;;;;;;;;8.10;95.70;;;;;;5045205;28;20128;-88
2021/12/17 08:13:32;;;;;;;;;;;8.20;95.80;;;;;;5020698;28;19909;-88
2021/12/17 08:16:20;;;;;;;;;;;8.20;95.80;;;;;;5027753;28;20220;-88
2021/12/17 08:31:30;;;;;;;;;;;8.30;95.90;;;;;;5049030;28;19913;-87
2021/12/17 08:33:57;;;;;;;;;;;8.30;95.90;;;;;;5033547;28;20304;-87
2021/12/17 08:36:24;;;;;;;;;;;8.30;95.90;;;;;;5044181;28;19909;-87
2021/12/17 08:38:51;;;;;;;;;;;8.40;95.90;;;;;;5038588;28;19912;-87
2021/12/17 08:41:19;;;;;;;;;;;8.40;95.90;;;;;;5041377;28;19942;-87
2021/12/17 08:43:46;;;;;;;;;;;8.40;96.00;;;;;;5016282;28;20126;-87
2021/12/17 08:46:13;;;;;;;;;;;8.50;96.00;;;;;;5045434;28;19930;-87
2021/12/17 08:48:40;;;;;;;;;;;8.50;96.00;;;;;;5038479;28;19909;-87
2021/12/17 08:51:08;;;;;;;;;;;8.50;96.00;;;;;;5014746;28;19915;-87
2021/12/17 08:53:35;;;;;;;;;;;8.50;96.00;;;;;;5027835;28;19909;-87
2021/12/17 08:56:03;;;;;;;;;;;8.60;96.10;;;;;;5052431;28;19915;-87
2021/12/17 08:58:30;;;;;;;;;;;8.60;96.10;;;;;;5032874;28;19912;-87
2021/12/17 09:00:57;;;;;;;;;;;8.60;96.10;;;;;;5019727;28;19917;-87
2021/12/17 09:03:23;;;;;;;;;;;8.70;96.20;;;;;;5030737;28;19918;-87
2021/12/17 09:05:50;;;;;;;;;;;8.70;96.20;;;;;;5008805;28;19926;-87
2021/12/17 09:08:17;;;;;;;;;;;8.80;96.30;;;;;;5015827;28;19923;-87
2021/12/17 09:10:45;;;;;;;;;;;8.80;96.30;;;;;;5037606;28;20517;-87
2021/12/17 09:13:12;;;;;;;;;;;8.80;96.30;;;;;;5032146;28;19912;-87
2021/12/17 09:15:39;;;;;;;;;;;8.90;96.30;;;;;;5024084;28;19908;-87
2021/12/17 09:18:06;;;;;;;;;;;8.90;96.40;;;;;;5044082;28;19908;-87
2021/12/17 09:20:32;;;;;;;;;;;8.90;96.40;;;;;;5046345;28;19908;-87
2021/12/17 09:22:59;;;;;;;;;;;8.90;96.40;;;;;;5031938;28;19909;-87
2021/12/17 09:25:26;;;;;;;;;;;9.00;96.40;;;;;;5027913;28;19909;-87
2021/12/17 09:27:53;;;;;;;;;;;9.00;96.40;;;;;;5030071;28;20126;-87
2021/12/17 09:30:20;;;;;;;;;;;9.10;96.40;;;;;;5026722;28;19935;-87
2021/12/17 09:32:47;;;;;;;;;;;9.10;96.40;;;;;;5033426;28;20006;-87
2021/12/17 09:35:14;;;;;;;;;;;9.10;96.40;;;;;;5035285;28;19916;-87
2021/12/17 09:37:41;;;;;;;;;;;9.10;96.50;;;;;;5036931;28;19912;-87
2021/12/17 09:40:09;;;;;;;;;;;9.20;96.50;;;;;;5037630;28;20379;-87
2021/12/17 09:42:36;;;;;;;;;;;9.20;96.50;;;;;;5022177;28;19931;-87
2021/12/17 09:45:03;;;;;;;;;;;9.30;96.60;;;;;;5024510;28;19919;-87
2021/12/17 09:47:30;;;;;;;;;;;9.30;96.60;;;;;;5008886;28;19915;-87
2021/12/17 09:49:58;;;;;;;;;;;9.30;96.50;;;;;;5025389;28;20095;-87
2021/12/17 09:52:25;;;;;;;;;;;9.30;96.50;;;;;;5021647;28;19915;-87
2021/12/17 09:54:52;;;;;;;;;;;9.40;96.50;;;;;;5009006;28;19916;-87
2021/12/17 09:57:20;;;;;;;;;;;9.40;96.50;;;;;;5033273;28;19908;-87
2021/12/17 09:59:47;;;;;;;;;;;9.40;96.50;;;;;;5031740;28;20030;-87
2021/12/17 10:02:14;;;;;;;;;;;9.40;96.50;;;;;;5009367;28;19923;-87
2021/12/17 10:04:42;;;;;;;;;;;9.40;96.60;;;;;;5023574;28;19908;-87
2021/12/17 10:07:41;;;;;;;;;;;9.40;96.60;;;;;;5036476;28;19909;-87
2021/12/17 10:10:08;;;;;;;;;;;9.50;96.60;;;;;;4996419;28;19908;-87
2021/12/17 10:12:36;;;;;;;;;;;9.50;96.60;;;;;;5043939;28;19916;-87
2021/12/17 10:15:05;;;;;;;;;;;9.50;96.60;;;;;;5034392;28;19909;-87
2021/12/17 10:17:32;;;;;;;;;;;9.60;96.70;;;;;;5027058;28;19917;-87
2021/12/17 10:20:00;;;;;;;;;;;9.60;96.70;;;;;;5019654;28;20018;-87
2021/12/17 10:22:29;;;;;;;;;;;9.60;96.70;;;;;;5029701;28;19923;-87
2021/12/17 10:24:58;;;;;;;;;;;9.60;96.70;;;;;;5015987;28;19934;-87
2021/12/17 10:27:27;;;;;;;;;;;9.70;96.70;;;;;;5027413;28;20385;-87
2021/12/17 10:29:54;;;;;;;;;;;9.70;96.70;;;;;;5016334;28;19915;-87
2021/12/17 10:32:22;;;;;;;;;;;9.70;96.70;;;;;;5028804;28;19917;-87
2021/12/17 10:34:58;;;;;;;;;;;9.70;96.70;;;;;;5000535;28;20562;-87
2021/12/17 10:37:37;;;;;;;;;;;9.80;96.80;;;;;;5037094;28;19904;-87
2021/12/17 10:40:15;;;;;;;;;;;9.80;96.80;;;;;;5030027;28;19923;-87
2021/12/17 10:42:50;;;;;;;;;;;9.80;96.80;;;;;;5019435;28;19908;-87
2021/12/17 10:45:26;;;;;;;;;;;9.80;96.80;;;;;;5044258;28;19915;-87
2021/12/17 10:50:49;;;;;;;;;;;9.90;96.80;;;;;;5023367;28;20119;-87
2021/12/17 10:53:20;;;;;;;;;;;9.90;96.80;;;;;;5032919;28;20101;-87
2021/12/17 10:55:47;;;;;;;;;;;9.90;96.80;;;;;;5017556;28;20656;-87
2021/12/17 10:58:14;;;;;;;;;;;10.00;96.90;;;;;;5029578;28;19908;-87
2021/12/17 11:00:48;;;;;;;;;;;10.00;96.90;;;;;;5027359;28;19919;-87
2021/12/17 11:03:14;;;;;;;;;;;10.00;96.90;;;;;;5032939;28;19935;-87
2021/12/17 11:05:41;;;;;;;;;;;10.10;96.90;;;;;;5004120;28;19916;-87
2021/12/17 11:08:23;;;;;;;;;;;10.00;96.90;;;;;;5036109;28;19917;-87
2021/12/17 11:10:57;;;;;;;;;;;10.00;96.90;;;;;;5025382;28;20549;-87
2021/12/17 11:13:24;;;;;;;;;;;10.10;96.90;;;;;;5024911;28;20012;-87
2021/12/17 11:15:52;;;;;;;;;;;10.10;96.90;;;;;;5024753;28;20093;-88
2021/12/17 11:18:19;;;;;;;;;;;10.10;96.90;;;;;;5026043;28;20296;-87
2021/12/17 11:20:46;;;;;;;;;;;10.20;96.90;;;;;;5013006;28;19919;-87
2021/12/17 11:23:15;;;;;;;;;;;10.20;96.90;;;;;;5021795;28;19915;-87
2021/12/17 11:25:44;;;;;;;;;;;10.20;96.90;;;;;;5044353;28;20261;-87
2021/12/17 11:28:11;;;;;;;;;;;10.20;96.90;;;;;;5014412;28;19943;-87
2021/12/17 11:30:40;;;;;;;;;;;10.20;96.90;;;;;;5017004;28;19916;-87
2021/12/17 11:33:08;;;;;;;;;;;10.20;96.90;;;;;;5026938;28;20774;-87
2021/12/17 11:35:37;;;;;;;;;;;10.20;96.90;;;;;;5022111;28;19921;-87
2021/12/17 11:38:23;;;;;;;;;;;10.30;97.00;;;;;;5027002;28;19931;-87
2021/12/17 11:41:02;;;;;;;;;;;10.30;96.90;;;;;;5012086;28;20114;-87
2021/12/17 11:43:36;;;;;;;;;;;10.30;96.90;;;;;;5016270;28;19908;-87
2021/12/17 11:46:03;;;;;;;;;;;10.30;97.00;;;;;;5037012;28;19914;-87
2021/12/17 11:48:31;;;;;;;;;;;10.30;97.00;;;;;;5027005;28;19917;-87
2021/12/17 11:51:04;;;;;;;;;;;10.30;97.00;;;;;;5044597;28;20196;-87
2021/12/17 11:53:30;;;;;;;;;;;10.30;97.00;;;;;;5007349;28;19908;-87
2021/12/17 11:55:59;;;;;;;;;;;10.40;97.00;;;;;;5030605;28;19919;-87
2021/12/17 11:58:41;;;;;;;;;;;10.40;97.30;;;;;;5025034;28;19908;-87
2021/12/17 12:01:08;;;;;;;;;;;10.30;97.00;;;;;;5033778;28;19920;-87
2021/12/17 12:03:35;;;;;;;;;;;10.40;97.00;;;;;;5044157;28;19913;-87
2021/12/17 12:06:02;;;;;;;;;;;10.40;97.00;;;;;;5043293;28;20265;-87
2021/12/17 12:08:31;;;;;;;;;;;10.40;97.00;;;;;;5010868;28;19915;-87
2021/12/17 12:11:03;;;;;;;;;;;10.40;97.00;;;;;;5023847;28;20522;-87
2021/12/17 12:13:49;;;;;;;;;;;10.40;97.00;;;;;;5014784;28;20366;-87
2021/12/17 12:16:20;;;;;;;;;;;10.40;97.00;;;;;;5031960;28;19923;-87
2021/12/17 12:18:49;;;;;;;;;;;10.40;97.10;;;;;;5040877;28;20216;-87
2021/12/17 12:21:20;;;;;;;;;;;10.40;97.10;;;;;;5032800;28;19919;-86
2021/12/17 12:23:48;;;;;;;;;;;10.50;97.10;;;;;;5030933;28;19931;-87
2021/12/17 12:26:15;;;;;;;;;;;10.50;97.10;;;;;;5025204;28;19919;-87
2021/12/17 12:28:54;;;;;;;;;;;10.50;97.10;;;;;;5023746;28;19908;-87
2021/12/17 12:31:30;;;;;;;;;;;10.60;97.10;;;;;;5029129;28;19909;-87
2021/12/17 12:34:00;;;;;;;;;;;10.60;97.10;;;;;;5046885;28;20118;-87
2021/12/17 12:36:45;;;;;;;;;;;10.60;97.10;;;;;;5024570;28;20284;-87
2021/12/17 12:39:23;;;;;;;;;;;10.60;97.10;;;;;;5015208;28;19919;-87
2021/12/17 12:42:02;;;;;;;;;;;10.60;97.10;;;;;;5040520;28;20006;-87
2021/12/17 12:44:49;;;;;;;;;;;10.70;97.10;;;;;;5025908;28;19908;-87
2021/12/17 12:47:19;;;;;;;;;;;10.60;97.10;;;;;;5012174;28;19908;-87
2021/12/17 12:49:56;;;;;;;;;;;10.70;97.20;;;;;;5030085;28;19916;-87
2021/12/17 12:52:46;;;;;;;;;;;10.80;97.20;;;;;;5045401;28;19915;-87
2021/12/17 12:55:36;;;;;;;;;;;10.80;97.20;;;;;;5030222;28;19909;-87
2021/12/17 12:58:03;;;;;;;;;;;10.80;97.10;;;;;;5033101;28;20391;-87
2021/12/17 13:00:32;;;;;;;;;;;10.80;97.10;;;;;;5022440;28;19912;-86
2021/12/17 13:03:04;;;;;;;;;;;10.80;97.10;;;;;;5023979;28;20507;-87
2021/12/17 13:05:32;;;;;;;;;;;10.80;97.10;;;;;;5031304;28;19927;-87
2021/12/17 13:07:59;;;;;;;;;;;10.90;97.10;;;;;;5030231;28;20381;-87
2021/12/17 13:10:37;;;;;;;;;;;10.90;97.10;;;;;;4998381;28;20276;-87
2021/12/17 13:13:07;;;;;;;;;;;10.90;97.50;;;;;;5025943;28;19909;-87
2021/12/17 13:15:44;;;;;;;;;;;10.90;97.10;;;;;;5023020;28;20273;-87
2021/12/17 13:21:02;;;;;;;;;;;10.90;97.00;;;;;;5041743;28;19967;-87
2021/12/17 13:23:31;;;;;;;;;;;10.90;97.00;;;;;;5029079;28;20323;-87
2021/12/17 13:26:08;;;;;;;;;;;10.90;97.10;;;;;;5032174;28;20117;-87
2021/12/17 13:28:45;;;;;;;;;;;10.90;97.10;;;;;;5040090;28;19909;-87
2021/12/17 13:31:23;;;;;;;;;;;10.90;97.10;;;;;;5021091;28;19915;-87
2021/12/17 13:33:51;;;;;;;;;;;11.00;97.10;;;;;;5013513;28;20418;-87
2021/12/17 13:36:18;;;;;;;;;;;10.90;97.10;;;;;;5028552;28;19913;-87
2021/12/17 13:38:45;;;;;;;;;;;10.90;97.00;;;;;;5031242;28;20185;-87
2021/12/17 13:41:12;;;;;;;;;;;10.90;97.10;;;;;;5038388;28;19912;-87
2021/12/17 13:43:39;;;;;;;;;;;10.90;97.10;;;;;;5016463;28;19915;-87
2021/12/17 13:46:07;;;;;;;;;;;11.00;97.10;;;;;;5028129;28;20291;-87
2021/12/17 13:48:34;;;;;;;;;;;11.00;97.10;;;;;;5031525;28;20243;-87
2021/12/17 13:51:01;;;;;;;;;;;11.00;97.10;;;;;;5035456;28;20579;-87
2021/12/17 13:53:29;;;;;;;;;;;11.00;97.10;;;;;;5026764;28;19909;-87
2021/12/17 13:55:57;;;;;;;;;;;11.00;97.10;;;;;;5033907;28;20625;-87
2021/12/17 13:58:24;;;;;;;;;;;11.00;97.10;;;;;;5041579;28;19905;-87
2021/12/17 14:00:53;;;;;;;;;;;11.00;97.20;;;;;;5004753;28;20677;-87
2021/12/17 14:03:21;;;;;;;;;;;11.00;97.10;;;;;;5030040;28;19916;-87
2021/12/17 14:05:55;;;;;;;;;;;11.00;97.10;;;;;;5031085;28;21920;-87
2021/12/17 14:08:23;;;;;;;;;;;11.00;97.10;;;;;;5034271;28;19912;-87
2021/12/17 14:10:53;;;;;;;;;;;11.10;97.10;;;;;;5048258;28;20105;-87
2021/12/17 14:13:24;;;;;;;;;;;11.00;97.10;;;;;;5012173;28;19912;-87
2021/12/17 14:15:52;;;;;;;;;;;11.10;97.10;;;;;;5031904;28;19939;-87
2021/12/17 14:18:23;;;;;;;;;;;11.10;97.10;;;;;;5021816;28;19916;-87
2021/12/17 14:20:52;;;;;;;;;;;11.10;97.10;;;;;;5015392;28;20397;-87
2021/12/17 14:23:25;;;;;;;;;;;11.10;97.10;;;;;;5033407;28;19922;-87
2021/12/17 14:25:53;;;;;;;;;;;11.10;97.10;;;;;;5024645;28;19938;-87
2021/12/17 14:28:25;;;;;;;;;;;11.10;97.10;;;;;;5024955;28;20640;-87
2021/12/17 14:30:55;;;;;;;;;;;11.10;97.10;;;;;;5031133;28;19923;-87
2021/12/17 14:33:23;;;;;;;;;;;11.10;97.10;;;;;;5023988;28;19917;-87
2021/12/17 14:35:58;;;;;;;;;;;11.10;97.10;;;;;;5039434;28;20600;-87
2021/12/17 14:38:47;;;;;;;;;;;11.10;97.00;;;;;;5028054;28;19909;-87
2021/12/17 14:41:15;;;;;;;;;;;11.10;97.00;;;;;;5027724;28;19922;-88
2021/12/17 14:43:54;;;;;;;;;;;11.10;97.10;;;;;;5017122;28;20399;-87
2021/12/17 14:46:27;;;;;;;;;;;11.10;97.10;;;;;;5044975;28;19911;-87
2021/12/17 15:02:51;;;;;;;;;;;11.00;97.10;;;;;;5044026;28;19913;-87
2021/12/17 15:05:19;;;;;;;;;;;11.10;97.10;;;;;;5025754;28;19915;-87
2021/12/17 15:07:46;;;;;;;;;;;11.00;97.10;;;;;;5023549;28;19912;-87
2021/12/17 15:10:14;;;;;;;;;;;11.00;97.00;;;;;;5038221;28;20324;-87
2021/12/17 15:12:41;;;;;;;;;;;11.10;97.10;;;;;;5029509;28;19931;-87
2021/12/17 15:15:09;;;;;;;;;;;11.10;97.10;;;;;;5019355;28;19915;-87
2021/12/17 15:17:36;;;;;;;;;;;11.10;97.10;;;;;;5026131;28;20364;-87
2021/12/17 15:20:05;;;;;;;;;;;11.10;97.10;;;;;;5026955;28;20424;-87
2021/12/17 15:22:32;;;;;;;;;;;11.10;97.10;;;;;;5027448;28;19967;-87
2021/12/17 15:24:58;;;;;;;;;;;11.00;97.00;;;;;;5043477;28;19931;-87
2021/12/17 15:27:29;;;;;;;;;;;11.10;97.10;;;;;;5028366;28;19915;-87
2021/12/17 15:29:56;;;;;;;;;;;11.10;97.10;;;;;;5035289;28;19908;-87
2021/12/17 15:32:23;;;;;;;;;;;11.10;97.10;;;;;;5010191;28;19917;-87
2021/12/17 15:34:52;;;;;;;;;;;11.10;97.10;;;;;;5017335;28;20095;-87
2021/12/17 15:37:18;;;;;;;;;;;11.10;97.10;;;;;;5015211;28;20269;-87
2021/12/17 15:39:45;;;;;;;;;;;11.10;97.10;;;;;;5018839;28;19915;-88
2021/12/17 15:42:12;;;;;;;;;;;11.10;97.10;;;;;;5021771;28;19919;-87
2021/12/17 15:44:39;;;;;;;;;;;11.10;97.10;;;;;;5015234;28;20304;-87
2021/12/17 15:47:08;;;;;;;;;;;11.00;97.00;;;;;;4993622;28;19919;-87
2021/12/17 15:49:37;;;;;;;;;;;11.10;97.10;;;;;;5026016;28;20120;-87
2021/12/17 15:52:05;;;;;;;;;;;11.10;97.10;;;;;;5007236;28;20361;-86
2021/12/17 15:54:32;;;;;;;;;;;11.00;97.10;;;;;;4989223;28;19916;-87
2021/12/17 15:56:59;;;;;;;;;;;11.10;97.10;;;;;;4989785;28;19921;-87
2021/12/17 15:59:25;;;;;;;;;;;11.00;97.00;;;;;;5023045;28;20086;-87
2021/12/17 16:01:52;;;;;;;;;;;11.10;97.10;;;;;;5024319;28;20416;-87
2021/12/17 16:04:19;;;;;;;;;;;11.10;97.10;;;;;;5017416;28;19928;-86
2021/12/17 16:06:46;;;;;;;;;;;11.10;97.10;;;;;;4999678;28;20281;-87
2021/12/17 16:22:59;;;;;;;;;;;11.10;97.10;;;;;;5017620;28;20404;-88
2021/12/17 16:25:26;;;;;;;;;;;11.10;97.20;;;;;;4985650;28;20092;-87
2021/12/17 16:27:53;;;;;;;;;;;11.00;97.10;;;;;;5013555;28;19909;-87
2021/12/17 16:30:19;;;;;;;;;;;11.00;97.20;;;;;;5027496;28;20243;-88
2021/12/17 16:32:46;;;;;;;;;;;11.10;97.20;;;;;;5009478;28;19917;-87
2021/12/17 16:35:13;;;;;;;;;;;11.10;97.10;;;;;;5018649;28;19908;-87
2021/12/17 16:37:40;;;;;;;;;;;11.10;97.20;;;;;;5043298;28;19931;-87
2021/12/17 16:40:07;;;;;;;;;;;11.10;97.10;;;;;;5033864;28;20198;-87
2021/12/17 16:42:34;;;;;;;;;;;11.10;97.10;;;;;;5018701;28;19916;-87
2021/12/17 16:45:31;;;;;;;;;;;11.10;97.10;;;;;;5030470;28;19918;-87
2021/12/17 16:47:49;;;;;;;;;;;11.10;97.50;;;;;;5034998;28;19916;-87
2021/12/17 16:50:16;;;;;;;;;;;11.10;97.10;;;;;;5018956;28;19923;-87
2021/12/17 16:52:43;;;;;;;;;;;11.10;97.10;;;;;;5021744;28;20091;-87
2021/12/17 16:55:10;;;;;;;;;;;11.10;97.10;;;;;;5017515;28;19915;-87
2021/12/17 16:57:37;;;;;;;;;;;11.10;97.10;;;;;;5023999;28;20177;-87
2021/12/17 17:00:06;;;;;;;;;;;11.10;97.20;;;;;;5035534;28;20240;-87
2021/12/17 17:02:32;;;;;;;;;;;11.10;97.10;;;;;;5034235;28;19912;-87
2021/12/17 17:04:59;;;;;;;;;;;11.10;97.10;;;;;;5023747;28;20209;-87
2021/12/17 17:07:28;;;;;;;;;;;11.00;97.10;;;;;;5030352;28;19912;-87
2021/12/17 17:09:54;;;;;;;;;;;11.10;97.10;;;;;;5034894;28;19908;-87
2021/12/17 17:12:24;;;;;;;;;;;11.10;97.10;;;;;;5023792;28;19909;-87
2021/12/17 17:14:51;;;;;;;;;;;11.10;97.10;;;;;;5052429;28;19915;-87
2021/12/17 17:17:18;;;;;;;;;;;11.10;97.10;;;;;;5041720;28;20354;-87
2021/12/17 17:19:45;;;;;;;;;;;11.10;97.10;;;;;;5017494;28;20146;-87
2021/12/17 17:22:14;;;;;;;;;;;11.10;97.10;;;;;;5044635;28;19911;-87
2021/12/17 17:24:41;;;;;;;;;;;11.10;97.20;;;;;;5020770;28;20136;-87
2021/12/17 17:27:08;;;;;;;;;;;11.10;97.10;;;;;;5028294;28;20041;-87
2021/12/17 17:29:35;;;;;;;;;;;11.10;97.10;;;;;;5029270;28;19917;-87
2021/12/17 17:32:03;;;;;;;;;;;11.10;97.10;;;;;;5021941;28;20269;-87
2021/12/17 17:34:30;;;;;;;;;;;11.10;97.10;;;;;;5000450;28;19917;-87
2021/12/17 17:36:57;;;;;;;;;;;11.10;97.10;;;;;;5016662;28;19904;-87
2021/12/17 17:39:24;;;;;;;;;;;11.00;97.10;;;;;;5006377;28;19909;-87
2021/12/17 17:41:51;;;;;;;;;;;11.00;97.10;;;;;;5022371;28;20350;-87
2021/12/17 17:44:18;;;;;;;;;;;11.00;97.10;;;;;;5019762;28;19918;-87
2021/12/17 17:46:45;;;;;;;;;;;11.10;97.10;;;;;;5022734;28;20399;-87
2021/12/17 17:49:12;;;;;;;;;;;11.00;97.10;;;;;;5024073;28;19909;-87
2021/12/17 17:51:40;;;;;;;;;;;11.00;97.10;;;;;;4992309;28;19916;-87
2021/12/17 17:54:07;;;;;;;;;;;11.10;97.10;;;;;;5002654;28;19917;-87
2021/12/17 17:56:33;;;;;;;;;;;11.00;97.00;;;;;;5007213;28;19909;-87
2021/12/17 17:59:00;;;;;;;;;;;11.10;97.10;;;;;;5014435;28;20539;-86
2021/12/17 18:01:27;;;;;;;;;;;11.10;97.00;;;;;;5015628;28;20370;-87
2021/12/17 18:03:54;;;;;;;;;;;11.10;97.00;;;;;;5023145;28;19927;-87
2021/12/17 18:06:21;;;;;;;;;;;11.10;97.00;;;;;;4993512;28;19912;-87